Time;durP1;ratioP1;P1;durP2;ratioP2;P2;SDS_P1;SDS_P2;PMS_P1;PMS_P2;Temp;Humidity;BMP_temperature;BMP_pressure;BME280_temperature;BME280_humidity;BME280_pressure;Samples;Min_cycle;Max_cycle;Signal;HPM_P1;HPM_P2
2021/04/24 00:02:07;;;;;;;5.47;3.88;;;18.80;53.10;;;;;;6242887;23;20019;-74
2021/04/24 00:04:33;;;;;;;7.32;4.65;;;18.80;53.20;;;;;;6244280;23;20077;-73
2021/04/24 00:06:59;;;;;;;5.15;4.10;;;18.80;53.10;;;;;;6244369;23;20008;-75
2021/04/24 00:09:24;;;;;;;5.85;3.95;;;18.70;53.10;;;;;;6244185;23;20003;-74
2021/04/24 00:11:50;;;;;;;7.72;3.97;;;18.80;53.10;;;;;;6243662;23;19996;-75
2021/04/24 00:14:16;;;;;;;7.43;4.07;;;18.70;53.10;;;;;;6242488;23;20008;-74
2021/04/24 00:16:42;;;;;;;6.20;3.72;;;18.70;53.60;;;;;;6244234;23;20011;-72
2021/04/24 00:19:08;;;;;;;5.38;3.75;;;18.70;53.00;;;;;;6244517;23;20314;-73
2021/04/24 00:21:33;;;;;;;4.97;4.03;;;18.70;53.00;;;;;;6243852;23;20440;-73
2021/04/24 00:23:59;;;;;;;7.70;4.13;;;18.70;53.00;;;;;;6244182;23;20366;-73
2021/04/24 00:26:26;;;;;;;5.75;3.70;;;18.70;53.00;;;;;;6244141;23;20031;-73
2021/04/24 00:28:52;;;;;;;8.48;3.83;;;18.70;52.90;;;;;;6244336;23;20496;-73
2021/04/24 00:31:21;;;;;;;6.38;4.15;;;18.60;52.90;;;;;;6243820;22;20008;-73
2021/04/24 00:33:47;;;;;;;8.02;4.18;;;18.60;52.90;;;;;;6243941;23;20003;-73
2021/04/24 00:36:14;;;;;;;5.80;3.47;;;18.50;52.80;;;;;;6243891;23;20004;-73
2021/04/24 00:38:40;;;;;;;6.97;4.05;;;18.50;52.90;;;;;;6243971;23;20429;-73
2021/04/24 00:41:05;;;;;;;6.15;3.55;;;18.50;52.80;;;;;;6244399;23;20008;-72
2021/04/24 00:43:31;;;;;;;6.35;4.28;;;18.50;53.40;;;;;;6242635;23;20008;-73
2021/04/24 00:45:57;;;;;;;6.07;3.78;;;18.50;52.80;;;;;;6243941;23;20340;-73
2021/04/24 00:48:22;;;;;;;7.03;3.60;;;18.50;52.80;;;;;;6243701;23;20000;-72
2021/04/24 00:50:48;;;;;;;5.05;3.30;;;18.40;52.70;;;;;;6243864;23;20004;-72
2021/04/24 00:53:14;;;;;;;5.72;3.67;;;18.40;52.80;;;;;;6243940;23;20016;-73
2021/04/24 00:55:41;;;;;;;8.13;3.42;;;18.40;52.80;;;;;;6242774;23;20004;-73
2021/04/24 00:58:12;;;;;;;7.43;3.72;;;18.40;52.80;;;;;;6244218;23;20000;-72
2021/04/24 01:00:39;;;;;;;6.47;4.03;;;18.40;52.70;;;;;;6243986;23;20012;-72
2021/04/24 01:03:05;;;;;;;8.73;4.05;;;18.40;52.70;;;;;;6243726;23;20001;-73
2021/04/24 01:05:34;;;;;;;5.78;4.07;;;18.40;52.70;;;;;;6243479;23;20167;-73
2021/04/24 01:08:00;;;;;;;5.88;3.42;;;18.40;52.60;;;;;;6243782;23;20001;-73
2021/04/24 01:10:32;;;;;;;5.82;3.60;;;18.40;52.70;;;;;;6242544;23;20000;-73
2021/04/24 01:12:58;;;;;;;7.20;4.15;;;18.30;52.70;;;;;;6243869;23;20000;-74
2021/04/24 01:15:24;;;;;;;4.72;3.03;;;18.30;52.60;;;;;;6243431;23;20015;-73
2021/04/24 01:17:50;;;;;;;8.02;4.05;;;18.30;52.60;;;;;;6243564;23;20011;-73
2021/04/24 01:20:17;;;;;;;6.60;3.50;;;18.30;52.60;;;;;;6243553;23;20027;-73
2021/04/24 01:22:46;;;;;;;5.32;3.60;;;18.30;52.60;;;;;;6244093;23;20039;-73
2021/04/24 01:25:18;;;;;;;5.93;3.58;;;18.30;52.60;;;;;;6244861;23;20015;-73
2021/04/24 01:27:48;;;;;;;6.22;3.00;;;18.30;52.60;;;;;;6245919;23;20012;-73
2021/04/24 01:30:15;;;;;;;4.78;3.05;;;18.30;52.60;;;;;;6245791;23;20004;-74
2021/04/24 01:32:40;;;;;;;5.63;3.60;;;18.30;52.60;;;;;;6246553;22;20000;-74
2021/04/24 01:35:12;;;;;;;6.72;3.30;;;18.20;52.40;;;;;;6245856;23;20011;-74
2021/04/24 01:37:38;;;;;;;5.93;3.22;;;18.20;52.50;;;;;;6245761;23;20062;-74
2021/04/24 01:40:06;;;;;;;4.25;3.00;;;18.20;52.40;;;;;;6243881;23;20012;-74
2021/04/24 01:42:32;;;;;;;6.00;3.45;;;18.20;52.50;;;;;;6245753;23;20010;-73
2021/04/24 01:44:58;;;;;;;5.20;3.30;;;18.20;52.40;;;;;;6245490;23;20032;-74
2021/04/24 01:47:24;;;;;;;6.05;3.30;;;18.10;52.40;;;;;;6245855;23;20008;-74
2021/04/24 01:49:49;;;;;;;6.00;3.30;;;18.20;52.40;;;;;;6246024;23;19997;-73
2021/04/24 01:52:15;;;;;;;6.13;3.33;;;18.20;52.30;;;;;;6245743;23;20004;-73
2021/04/24 01:54:41;;;;;;;5.13;2.88;;;18.10;52.20;;;;;;6245960;23;20007;-73
2021/04/24 01:57:06;;;;;;;5.85;3.33;;;18.10;52.20;;;;;;6245379;23;20007;-73
2021/04/24 01:59:35;;;;;;;5.35;3.28;;;18.10;52.20;;;;;;6245371;23;19996;-73
2021/04/24 02:02:01;;;;;;;4.85;3.33;;;18.10;52.20;;;;;;6245583;23;20409;-72
2021/04/24 02:04:28;;;;;;;6.50;3.25;;;18.00;52.20;;;;;;6245275;23;20340;-73
2021/04/24 02:06:55;;;;;;;4.22;2.80;;;18.10;52.20;;;;;;6243815;23;20004;-72
2021/04/24 02:09:22;;;;;;;4.82;3.15;;;18.10;52.20;;;;;;6245448;23;20006;-73
2021/04/24 02:12:03;;;;;;;5.97;3.38;;;18.00;52.20;;;;;;6245539;23;20020;-73
2021/04/24 02:14:29;;;;;;;5.97;3.00;;;18.00;52.20;;;;;;6244974;23;20011;-73
2021/04/24 02:16:54;;;;;;;5.45;3.30;;;18.00;52.20;;;;;;6245541;23;20000;-73
2021/04/24 02:19:20;;;;;;;4.95;3.13;;;18.00;52.20;;;;;;6245260;23;20440;-72
2021/04/24 02:21:46;;;;;;;6.00;2.95;;;18.00;52.20;;;;;;6245365;23;20019;-73
2021/04/24 02:24:12;;;;;;;4.68;3.33;;;18.00;52.20;;;;;;6245397;23;20118;-73
2021/04/24 02:26:37;;;;;;;6.03;3.63;;;18.00;52.20;;;;;;6245050;23;20077;-73
2021/04/24 02:29:03;;;;;;;5.53;3.00;;;17.90;52.10;;;;;;6245286;23;20071;-72
2021/04/24 02:31:29;;;;;;;4.47;2.90;;;17.90;52.10;;;;;;6245284;22;20400;-73
2021/04/24 02:33:55;;;;;;;3.97;2.88;;;17.90;52.10;;;;;;6243781;23;20005;-73
2021/04/24 02:36:20;;;;;;;5.68;3.20;;;17.90;52.10;;;;;;6244561;23;20000;-73
2021/04/24 02:38:51;;;;;;;4.22;2.92;;;17.90;52.10;;;;;;6245182;23;20000;-73
2021/04/24 02:41:17;;;;;;;5.40;3.13;;;17.90;52.10;;;;;;6245090;23;20095;-73
2021/04/24 02:43:43;;;;;;;4.25;3.10;;;17.90;52.10;;;;;;6245446;23;20032;-73
2021/04/24 02:46:09;;;;;;;5.07;3.20;;;17.90;52.10;;;;;;6245061;23;20011;-73
2021/04/24 02:48:35;;;;;;;4.90;3.10;;;17.90;52.00;;;;;;6245281;23;20043;-73
2021/04/24 02:51:00;;;;;;;5.63;3.50;;;17.90;52.00;;;;;;6243349;23;20004;-73
2021/04/24 02:53:26;;;;;;;5.05;3.10;;;17.90;52.00;;;;;;6242978;23;20005;-73
2021/04/24 02:55:52;;;;;;;4.35;2.90;;;17.80;52.00;;;;;;6245313;23;20062;-73
2021/04/24 02:58:18;;;;;;;5.07;2.65;;;17.80;52.00;;;;;;6245162;23;20022;-73
2021/04/24 03:00:44;;;;;;;4.38;2.80;;;17.80;51.90;;;;;;6245048;23;20010;-73
2021/04/24 03:03:13;;;;;;;5.45;3.17;;;17.80;51.90;;;;;;6245059;23;20067;-73
2021/04/24 03:05:41;;;;;;;4.13;2.92;;;17.80;51.80;;;;;;6243139;23;20050;-73
2021/04/24 03:08:08;;;;;;;5.65;2.90;;;17.80;51.80;;;;;;6244527;23;20067;-73
2021/04/24 03:10:38;;;;;;;5.80;2.92;;;17.70;52.10;;;;;;6244973;23;20046;-73
2021/04/24 03:13:06;;;;;;;4.35;2.50;;;17.70;51.90;;;;;;6244921;23;20046;-74
2021/04/24 03:15:32;;;;;;;4.50;3.10;;;17.70;51.80;;;;;;6245020;23;20000;-74
2021/04/24 03:17:57;;;;;;;5.63;2.72;;;17.70;51.80;;;;;;6244899;23;20007;-74
2021/04/24 03:20:23;;;;;;;3.60;2.50;;;17.70;51.80;;;;;;6244512;23;20087;-73
2021/04/24 03:22:49;;;;;;;4.45;2.63;;;17.70;51.80;;;;;;6244525;23;20008;-73
2021/04/24 03:25:16;;;;;;;4.88;2.83;;;17.70;51.80;;;;;;6245320;23;20014;-72
2021/04/24 03:27:42;;;;;;;4.50;2.83;;;17.60;51.70;;;;;;6243008;23;20040;-73
2021/04/24 03:30:10;;;;;;;4.10;2.50;;;17.70;51.80;;;;;;6244615;23;19996;-72
2021/04/24 03:32:36;;;;;;;5.15;3.20;;;17.70;51.80;;;;;;6245039;23;20406;-72
2021/04/24 03:35:03;;;;;;;4.32;2.65;;;17.70;51.80;;;;;;6244053;23;20000;-73
2021/04/24 03:37:28;;;;;;;4.15;2.88;;;17.70;51.70;;;;;;6242891;23;20034;-73
2021/04/24 03:39:55;;;;;;;4.45;2.78;;;17.70;51.70;;;;;;6244675;23;20445;-72
2021/04/24 03:42:20;;;;;;;4.72;2.72;;;17.70;51.70;;;;;;6244493;23;20011;-73
2021/04/24 03:44:46;;;;;;;3.88;2.65;;;17.70;51.70;;;;;;6245063;23;19997;-73
2021/04/24 03:47:12;;;;;;;3.70;2.75;;;17.60;51.60;;;;;;6244314;23;20004;-73
2021/04/24 03:49:38;;;;;;;3.58;2.53;;;17.60;51.60;;;;;;6242918;23;20034;-73
2021/04/24 03:52:04;;;;;;;4.57;2.70;;;17.60;51.60;;;;;;6244109;23;20000;-73
2021/04/24 03:54:30;;;;;;;4.82;3.10;;;17.60;51.60;;;;;;6244480;23;20086;-72
2021/04/24 03:56:57;;;;;;;4.15;2.78;;;17.60;51.60;;;;;;6244622;23;20440;-73
2021/04/24 03:59:23;;;;;;;4.40;2.60;;;17.60;51.60;;;;;;6244395;23;20504;-73
2021/04/24 04:01:49;;;;;;;5.13;2.80;;;17.60;51.60;;;;;;6244446;23;20047;-73
2021/04/24 04:04:14;;;;;;;4.38;2.97;;;17.60;51.60;;;;;;6242840;23;20071;-73
2021/04/24 04:06:40;;;;;;;4.90;2.92;;;17.60;51.60;;;;;;6244036;23;20000;-73
2021/04/24 04:09:06;;;;;;;5.55;2.65;;;17.60;51.60;;;;;;6244248;23;20000;-73
2021/04/24 04:11:31;;;;;;;3.72;2.63;;;17.60;51.60;;;;;;6244123;23;20071;-72
2021/04/24 04:13:57;;;;;;;4.68;3.10;;;17.60;51.60;;;;;;6242820;23;20057;-73
2021/04/24 04:16:24;;;;;;;4.00;2.40;;;17.50;51.60;;;;;;6244263;23;20012;-73
2021/04/24 04:18:51;;;;;;;5.55;2.95;;;17.60;51.60;;;;;;6244733;23;20028;-73
2021/04/24 04:21:16;;;;;;;4.53;2.55;;;17.60;51.50;;;;;;6243588;23;20058;-72
2021/04/24 04:23:42;;;;;;;5.35;3.22;;;17.50;51.50;;;;;;6244151;23;20004;-73
2021/04/24 04:26:08;;;;;;;5.22;2.88;;;17.50;51.50;;;;;;6242622;23;20008;-73
2021/04/24 04:28:33;;;;;;;6.45;2.70;;;17.50;51.50;;;;;;6244225;23;20075;-73
2021/04/24 04:30:59;;;;;;;5.30;3.08;;;17.50;51.50;;;;;;6242277;23;20015;-73
2021/04/24 04:33:25;;;;;;;4.38;2.63;;;17.40;51.40;;;;;;6243740;23;20071;-74
2021/04/24 04:35:51;;;;;;;6.18;2.88;;;17.50;51.50;;;;;;6244309;23;20007;-73
2021/04/24 04:38:17;;;;;;;4.50;2.60;;;17.50;51.50;;;;;;6242493;23;20015;-73
2021/04/24 04:40:44;;;;;;;3.88;2.72;;;17.50;51.50;;;;;;6244003;23;19996;-74
2021/04/24 04:43:10;;;;;;;4.43;2.90;;;17.50;51.50;;;;;;6242264;23;20008;-73
2021/04/24 04:45:36;;;;;;;4.88;2.70;;;17.40;51.40;;;;;;6243854;23;20050;-73
2021/04/24 04:48:04;;;;;;;4.50;3.22;;;17.40;51.90;;;;;;6243845;23;20008;-73
2021/04/24 04:50:32;;;;;;;4.43;2.83;;;17.40;51.40;;;;;;6243785;23;20103;-73
2021/04/24 04:52:58;;;;;;;5.10;3.20;;;17.40;51.40;;;;;;6244024;23;20139;-72
2021/04/24 04:55:25;;;;;;;3.45;2.53;;;17.40;51.40;;;;;;6244040;23;20004;-73
2021/04/24 04:57:50;;;;;;;4.50;2.65;;;17.40;51.40;;;;;;6244207;23;20432;-73
2021/04/24 05:00:18;;;;;;;5.13;2.63;;;17.40;51.40;;;;;;6243059;23;20007;-72
2021/04/24 05:02:44;;;;;;;3.95;2.58;;;17.40;51.40;;;;;;6242087;23;20035;-72
2021/04/24 05:05:11;;;;;;;4.07;2.63;;;17.40;51.30;;;;;;6242524;23;20054;-72
2021/04/24 05:07:37;;;;;;;4.53;2.60;;;17.40;51.30;;;;;;6244123;23;20321;-73
2021/04/24 05:10:04;;;;;;;5.28;3.10;;;17.40;51.30;;;;;;6243943;23;20432;-73
2021/04/24 05:12:29;;;;;;;3.83;3.00;;;17.40;51.30;;;;;;6243551;23;20467;-73
2021/04/24 05:14:55;;;;;;;4.30;2.78;;;17.30;51.30;;;;;;6244028;23;20005;-72
2021/04/24 05:17:21;;;;;;;4.15;2.80;;;17.30;51.30;;;;;;6242240;23;20001;-73
2021/04/24 05:19:47;;;;;;;4.72;2.58;;;17.30;51.20;;;;;;6242503;23;20012;-73
2021/04/24 05:22:13;;;;;;;5.10;2.70;;;17.30;51.20;;;;;;6243569;23;20444;-73
2021/04/24 05:24:38;;;;;;;4.75;2.85;;;17.30;51.20;;;;;;6243544;23;20000;-73
2021/04/24 05:27:05;;;;;;;4.30;2.75;;;17.30;51.20;;;;;;6243735;23;20011;-73
2021/04/24 05:29:30;;;;;;;4.07;2.50;;;17.30;51.20;;;;;;6243825;23;19996;-73
2021/04/24 05:31:56;;;;;;;5.72;3.28;;;17.30;51.20;;;;;;6241985;23;20008;-72
2021/04/24 05:34:21;;;;;;;4.45;3.10;;;17.30;51.20;;;;;;6244286;23;20019;-73
2021/04/24 05:36:47;;;;;;;4.07;2.50;;;17.30;51.20;;;;;;6243760;23;20001;-74
2021/04/24 05:39:13;;;;;;;4.85;2.75;;;17.30;51.20;;;;;;6243810;23;20004;-73
2021/04/24 05:41:39;;;;;;;4.03;2.53;;;17.30;51.20;;;;;;6241905;23;20020;-74
2021/04/24 05:44:05;;;;;;;4.60;3.00;;;17.20;51.10;;;;;;6243547;23;20024;-74
2021/04/24 05:46:31;;;;;;;3.65;2.35;;;17.20;51.20;;;;;;6243560;23;20007;-73
2021/04/24 05:48:57;;;;;;;5.60;3.42;;;17.20;51.10;;;;;;6244329;23;20004;-74
2021/04/24 05:51:24;;;;;;;4.05;2.58;;;17.20;51.10;;;;;;6243997;23;20081;-73
2021/04/24 05:53:52;;;;;;;3.85;2.70;;;17.20;51.10;;;;;;6243848;23;19996;-74
2021/04/24 05:56:19;;;;;;;4.90;2.80;;;17.20;51.20;;;;;;6243634;23;20008;-73
2021/04/24 05:58:45;;;;;;;4.50;2.80;;;17.20;51.10;;;;;;6243777;23;20000;-74
2021/04/24 06:01:11;;;;;;;4.32;2.75;;;17.20;51.10;;;;;;6243189;23;20095;-74
2021/04/24 06:03:37;;;;;;;4.43;3.22;;;17.20;51.10;;;;;;6243872;23;20031;-73
2021/04/24 06:06:03;;;;;;;3.80;2.67;;;17.20;51.10;;;;;;6243885;23;20440;-73
2021/04/24 06:08:29;;;;;;;4.95;2.30;;;17.20;51.10;;;;;;6243780;23;20005;-73
2021/04/24 06:10:54;;;;;;;3.90;2.78;;;17.20;51.10;;;;;;6244571;23;20071;-73
2021/04/24 06:13:20;;;;;;;4.40;2.72;;;17.20;51.10;;;;;;6245224;23;20067;-73
2021/04/24 06:15:46;;;;;;;4.25;2.50;;;17.20;51.10;;;;;;6245028;23;20071;-73
2021/04/24 06:18:12;;;;;;;4.78;2.60;;;17.20;51.10;;;;;;6245554;23;20051;-73
2021/04/24 06:20:37;;;;;;;3.03;2.42;;;17.20;51.10;;;;;;6245401;23;20004;-73
2021/04/24 06:23:03;;;;;;;4.20;2.80;;;17.20;51.10;;;;;;6245328;23;20008;-73
2021/04/24 06:25:29;;;;;;;4.18;2.75;;;17.10;51.10;;;;;;6245453;23;20010;-73
2021/04/24 06:27:55;;;;;;;4.20;2.60;;;17.20;51.10;;;;;;6245781;23;20103;-73
2021/04/24 06:30:22;;;;;;;3.58;2.38;;;17.10;51.00;;;;;;6245050;23;20493;-73
2021/04/24 06:32:49;;;;;;;4.20;2.90;;;17.10;51.00;;;;;;6245624;23;20004;-73
2021/04/24 06:35:16;;;;;;;4.53;2.60;;;17.20;51.10;;;;;;6243707;23;20051;-73
2021/04/24 06:37:42;;;;;;;2.83;2.20;;;17.20;51.10;;;;;;6245548;23;20503;-73
2021/04/24 06:40:10;;;;;;;4.43;2.90;;;17.10;51.00;;;;;;6244907;23;20031;-73
2021/04/24 06:42:36;;;;;;;3.50;2.53;;;17.10;51.00;;;;;;6245140;23;20399;-73
2021/04/24 06:45:05;;;;;;;4.78;2.50;;;17.20;51.10;;;;;;6243486;23;20005;-73
2021/04/24 06:47:31;;;;;;;3.60;2.70;;;17.10;51.00;;;;;;6245166;23;20035;-73
2021/04/24 06:49:57;;;;;;;3.40;2.53;;;17.10;51.00;;;;;;6245757;23;20004;-73
2021/04/24 06:52:23;;;;;;;4.00;2.67;;;17.10;51.00;;;;;;6244689;23;20455;-74
2021/04/24 06:54:48;;;;;;;5.10;2.42;;;17.10;51.00;;;;;;6245007;23;20005;-74
2021/04/24 06:57:14;;;;;;;3.30;2.40;;;17.10;51.00;;;;;;6245075;23;20036;-74
2021/04/24 06:59:40;;;;;;;4.97;2.83;;;17.10;51.00;;;;;;6244773;23;19996;-74
2021/04/24 07:02:08;;;;;;;5.30;2.80;;;17.10;51.10;;;;;;6245048;23;20494;-73
2021/04/24 07:04:33;;;;;;;3.28;2.25;;;17.10;51.00;;;;;;6245216;23;20008;-75
2021/04/24 07:06:59;;;;;;;3.53;2.42;;;17.10;51.00;;;;;;6245253;23;20008;-75
2021/04/24 07:09:25;;;;;;;4.20;2.78;;;17.10;51.00;;;;;;6243236;23;20001;-74
2021/04/24 07:11:50;;;;;;;4.07;2.67;;;17.10;51.00;;;;;;6244795;23;20004;-75
2021/04/24 07:14:16;;;;;;;4.18;2.53;;;17.10;51.00;;;;;;6244889;23;20000;-75
2021/04/24 07:16:42;;;;;;;3.65;2.47;;;17.10;51.00;;;;;;6244834;23;20335;-75
2021/04/24 07:19:07;;;;;;;3.90;2.20;;;17.10;51.00;;;;;;6244469;23;19996;-74
2021/04/24 07:21:33;;;;;;;3.53;2.40;;;17.10;51.00;;;;;;6244691;23;20094;-75
2021/04/24 07:23:59;;;;;;;4.53;2.70;;;17.10;51.00;;;;;;6244050;23;20118;-75
2021/04/24 07:26:24;;;;;;;4.00;2.45;;;17.10;50.90;;;;;;6243127;23;20011;-74
2021/04/24 07:28:50;;;;;;;4.30;2.72;;;17.10;50.90;;;;;;6243693;23;20005;-74
2021/04/24 07:31:16;;;;;;;5.00;2.60;;;17.10;50.90;;;;;;6244650;23;20043;-74
2021/04/24 07:33:42;;;;;;;4.20;2.65;;;17.10;51.00;;;;;;6244813;23;20340;-74
2021/04/24 07:36:09;;;;;;;4.68;2.42;;;17.10;50.90;;;;;;6242934;23;20031;-75
2021/04/24 07:38:35;;;;;;;2.90;1.83;;;17.10;50.90;;;;;;6244323;23;20007;-73
2021/04/24 07:41:00;;;;;;;3.75;2.30;;;17.10;51.00;;;;;;6244508;23;20008;-74
2021/04/24 07:43:26;;;;;;;4.65;2.30;;;17.20;51.10;;;;;;6244611;23;20000;-74
2021/04/24 07:45:52;;;;;;;6.65;2.60;;;17.20;50.90;;;;;;6244726;23;20011;-74
2021/04/24 07:48:18;;;;;;;3.47;2.25;;;17.20;50.90;;;;;;6244269;23;20003;-74
2021/04/24 07:50:45;;;;;;;3.42;2.13;;;17.30;50.90;;;;;;6244533;23;20076;-73
2021/04/24 07:53:11;;;;;;;6.63;2.33;;;17.40;51.00;;;;;;6244528;23;20331;-72
2021/04/24 07:55:37;;;;;;;4.05;2.35;;;17.50;50.90;;;;;;6244298;23;20004;-73
2021/04/24 07:58:02;;;;;;;4.47;2.20;;;17.50;50.90;;;;;;6244384;23;20421;-73
2021/04/24 08:00:28;;;;;;;4.03;2.20;;;17.60;50.90;;;;;;6244360;23;20000;-73
2021/04/24 08:02:54;;;;;;;4.50;2.15;;;17.60;50.70;;;;;;6242995;23;20090;-73
2021/04/24 08:05:20;;;;;;;3.22;2.08;;;17.70;50.70;;;;;;6244478;23;20023;-72
2021/04/24 08:07:46;;;;;;;6.85;3.10;;;17.80;50.40;;;;;;6244073;23;20015;-73
2021/04/24 08:10:13;;;;;;;7.25;3.45;;;17.90;50.30;;;;;;6244432;23;20008;-74
2021/04/24 08:12:39;;;;;;;6.13;2.97;;;17.90;50.30;;;;;;6242950;23;20019;-73
2021/04/24 08:15:06;;;;;;;6.78;3.67;;;18.00;50.10;;;;;;6242558;23;20004;-73
2021/04/24 08:17:32;;;;;;;6.05;2.78;;;18.10;50.00;;;;;;6244361;23;20007;-72
2021/04/24 08:19:59;;;;;;;6.05;2.90;;;18.20;49.90;;;;;;6244057;23;20383;-72
2021/04/24 08:22:25;;;;;;;4.97;2.25;;;18.30;49.60;;;;;;6243504;23;20039;-73
2021/04/24 08:24:51;;;;;;;13.65;2.97;;;18.40;49.30;;;;;;6243591;23;20042;-72
2021/04/24 08:27:17;;;;;;;4.78;2.38;;;18.50;49.30;;;;;;6236601;23;20015;-71
2021/04/24 08:29:42;;;;;;;5.03;1.98;;;18.60;49.20;;;;;;6240443;23;20011;-71
2021/04/24 08:32:11;;;;;;;4.30;2.65;;;18.60;48.80;;;;;;6233749;23;19996;-72
2021/04/24 08:34:37;;;;;;;3.97;2.33;;;18.70;48.70;;;;;;6241108;23;20436;-72
2021/04/24 08:37:03;;;;;;;5.72;2.05;;;18.80;48.50;;;;;;6243565;23;20023;-72
2021/04/24 08:39:29;;;;;;;4.38;1.92;;;18.80;48.30;;;;;;6243403;23;20004;-71
2021/04/24 08:41:54;;;;;;;4.05;1.98;;;18.90;48.30;;;;;;6242787;23;20058;-77
2021/04/24 08:44:20;;;;;;;3.92;1.60;;;19.00;48.00;;;;;;6241815;23;20019;-71
2021/04/24 08:46:51;;;;;;;3.60;1.65;;;19.10;48.10;;;;;;6243238;23;20007;-72
2021/04/24 08:49:24;;;;;;;4.43;2.20;;;19.10;47.90;;;;;;6243426;23;20001;-74
2021/04/24 08:51:51;;;;;;;8.48;2.22;;;19.20;47.60;;;;;;6242568;23;20004;-71
2021/04/24 08:54:18;;;;;;;4.38;1.98;;;19.30;47.70;;;;;;6243420;23;20403;-73
2021/04/24 08:56:44;;;;;;;3.63;1.92;;;19.30;47.50;;;;;;6243259;23;20058;-72
2021/04/24 08:59:09;;;;;;;3.00;1.63;;;19.40;47.50;;;;;;6243557;23;20000;-70
2021/04/24 09:01:35;;;;;;;5.05;2.17;;;19.50;47.30;;;;;;6243421;23;20198;-72
2021/04/24 09:04:01;;;;;;;5.55;1.90;;;19.50;47.40;;;;;;6243453;23;20023;-70
2021/04/24 09:06:28;;;;;;;3.08;1.63;;;19.60;47.20;;;;;;6242986;23;20015;-70
2021/04/24 09:09:00;;;;;;;5.40;1.80;;;19.70;47.30;;;;;;6243384;23;20015;-71
2021/04/24 09:11:27;;;;;;;5.00;1.85;;;19.70;47.10;;;;;;6243071;23;20444;-69
2021/04/24 09:14:04;;;;;;;3.13;1.63;;;19.80;46.90;;;;;;6242921;23;20020;-70
2021/04/24 09:16:30;;;;;;;6.28;1.58;;;19.80;46.80;;;;;;6243009;23;20007;-71
2021/04/24 09:18:56;;;;;;;2.63;1.35;;;19.90;46.70;;;;;;6243100;23;20000;-71
2021/04/24 09:21:24;;;;;;;2.83;1.35;;;19.90;46.70;;;;;;6243002;23;20008;-72
2021/04/24 09:23:50;;;;;;;2.42;1.30;;;20.00;46.90;;;;;;6243208;23;20004;-71
2021/04/24 09:26:19;;;;;;;4.50;1.55;;;20.00;47.00;;;;;;6242732;23;20008;-71
2021/04/24 09:28:46;;;;;;;7.47;1.95;;;20.10;46.90;;;;;;6243441;23;20139;-70
2021/04/24 09:31:23;;;;;;;5.63;1.80;;;20.20;46.80;;;;;;6241502;23;20121;-70
2021/04/24 09:33:52;;;;;;;3.40;1.40;;;20.30;46.90;;;;;;6243598;23;20054;-72
2021/04/24 09:36:18;;;;;;;5.25;1.58;;;20.30;46.90;;;;;;6243540;23;20379;-74
2021/04/24 09:38:46;;;;;;;3.05;1.75;;;20.40;47.00;;;;;;6243660;23;20321;-72
2021/04/24 09:41:27;;;;;;;7.70;2.00;;;20.40;46.90;;;;;;6243583;23;20012;-71
2021/04/24 09:44:04;;;;;;;3.60;1.63;;;20.50;47.00;;;;;;6243824;23;20000;-71
2021/04/24 09:46:50;;;;;;;3.65;1.40;;;20.60;47.00;;;;;;6245036;23;20321;-73
2021/04/24 09:49:29;;;;;;;4.17;1.60;;;20.60;46.90;;;;;;6244076;23;20080;-72
2021/04/24 09:51:59;;;;;;;2.70;1.35;;;20.70;46.90;;;;;;6245434;23;20237;-75
2021/04/24 09:54:37;;;;;;;2.47;1.58;;;20.70;46.60;;;;;;6245331;23;20425;-73
2021/04/24 09:57:04;;;;;;;5.15;1.40;;;20.80;46.50;;;;;;6244914;23;20015;-73
2021/04/24 09:59:30;;;;;;;5.30;1.52;;;20.90;46.40;;;;;;6245701;23;20012;-71
2021/04/24 10:02:06;;;;;;;6.05;1.45;;;20.90;46.30;;;;;;6245478;23;20008;-70
2021/04/24 10:04:32;;;;;;;4.88;1.45;;;21.00;46.30;;;;;;6245598;23;20027;-70
2021/04/24 10:06:58;;;;;;;2.17;1.20;;;21.00;46.20;;;;;;6245239;23;20050;-71
2021/04/24 10:09:24;;;;;;;3.80;1.52;;;21.00;46.10;;;;;;6243995;23;20054;-70
2021/04/24 10:12:11;;;;;;;3.97;1.55;;;21.10;45.90;;;;;;6245406;23;20372;-71
2021/04/24 10:14:43;;;;;;;5.90;1.20;;;21.10;45.90;;;;;;6244906;23;20079;-70
2021/04/24 10:17:11;;;;;;;3.42;1.58;;;21.20;45.90;;;;;;6242318;23;20067;-72
2021/04/24 10:19:38;;;;;;;3.00;1.45;;;21.20;45.80;;;;;;6244801;23;20004;-71
2021/04/24 10:22:18;;;;;;;3.45;1.50;;;21.30;45.70;;;;;;6244443;23;20321;-73
2021/04/24 10:24:44;;;;;;;3.40;1.20;;;21.30;45.60;;;;;;6245266;23;20436;-74
2021/04/24 10:27:13;;;;;;;4.68;1.60;;;21.40;45.70;;;;;;6243981;23;20090;-72
2021/04/24 10:29:40;;;;;;;5.15;1.63;;;21.40;45.50;;;;;;6245484;23;20000;-75
2021/04/24 10:32:06;;;;;;;3.17;1.60;;;21.40;45.30;;;;;;6245079;23;20000;-72
2021/04/24 10:34:32;;;;;;;5.07;1.45;;;21.50;45.40;;;;;;6245603;23;20075;-70
2021/04/24 10:36:58;;;;;;;5.18;1.60;;;21.60;45.30;;;;;;6245332;23;19996;-70
2021/04/24 10:39:27;;;;;;;3.67;1.65;;;21.60;45.30;;;;;;6244687;23;20012;-70
2021/04/24 10:42:08;;;;;;;2.92;1.33;;;21.60;45.30;;;;;;6244614;23;20008;-71
2021/04/24 10:44:46;;;;;;;5.32;1.35;;;21.70;45.10;;;;;;6245198;23;20444;-70
2021/04/24 10:47:12;;;;;;;3.03;1.38;;;21.70;45.10;;;;;;6245178;23;20007;-71
2021/04/24 10:49:55;;;;;;;3.90;1.67;;;21.80;45.00;;;;;;6245466;23;20000;-73
2021/04/24 10:52:23;;;;;;;3.20;1.67;;;21.80;44.90;;;;;;6245038;23;20317;-74
2021/04/24 10:55:13;;;;;;;4.20;1.55;;;21.90;44.80;;;;;;6245218;23;20001;-71
2021/04/24 10:57:51;;;;;;;3.15;1.52;;;21.90;44.70;;;;;;6245927;23;20000;-72
2021/04/24 11:00:22;;;;;;;3.90;1.38;;;22.00;44.70;;;;;;6244713;23;20019;-76
2021/04/24 11:02:52;;;;;;;5.40;1.88;;;22.00;44.50;;;;;;6244771;23;20000;-74
2021/04/24 11:05:25;;;;;;;4.00;1.65;;;22.10;44.50;;;;;;6244483;23;20000;-70
2021/04/24 11:08:19;;;;;;;3.13;1.40;;;22.10;44.50;;;;;;6244959;23;20008;-71
2021/04/24 11:10:54;;;;;;;3.58;1.77;;;22.10;44.40;;;;;;6244715;23;20032;-79
2021/04/24 11:13:21;;;;;;;2.40;1.40;;;22.10;44.50;;;;;;6244565;23;20004;-77
2021/04/24 11:15:48;;;;;;;4.53;1.60;;;22.20;44.50;;;;;;6242057;23;20249;-75
2021/04/24 11:18:16;;;;;;;3.40;1.63;;;22.20;44.50;;;;;;6238799;23;20460;-74
2021/04/24 11:21:02;;;;;;;3.28;1.58;;;22.20;44.60;;;;;;6243542;23;20015;-74
2021/04/24 11:23:35;;;;;;;3.42;1.23;;;22.20;44.70;;;;;;6244161;23;20011;-74
2021/04/24 11:26:08;;;;;;;4.55;1.33;;;22.20;44.80;;;;;;6243654;23;20019;-72
2021/04/24 11:28:56;;;;;;;2.30;1.10;;;22.20;44.90;;;;;;6244261;23;20033;-69
2021/04/24 11:31:49;;;;;;;4.95;1.67;;;22.20;45.00;;;;;;6244548;23;20000;-74
2021/04/24 11:34:30;;;;;;;2.55;1.50;;;22.20;44.90;;;;;;6244674;23;20000;-70
2021/04/24 11:37:14;;;;;;;5.13;1.67;;;22.10;45.00;;;;;;6244343;23;20332;-70
2021/04/24 11:40:23;;;;;;;2.40;1.60;;;22.20;45.10;;;;;;6244302;23;20468;-73
2021/04/24 11:42:57;;;;;;;3.88;1.75;;;22.20;45.20;;;;;;6235982;23;20012;-73
2021/04/24 11:45:49;;;;;;;3.20;1.50;;;22.20;45.20;;;;;;6244383;23;20008;-74
2021/04/24 11:48:17;;;;;;;4.35;1.60;;;22.20;45.30;;;;;;6244101;23;20007;-72
2021/04/24 11:50:44;;;;;;;3.55;1.58;;;22.20;45.10;;;;;;6244074;23;20440;-74
2021/04/24 11:53:12;;;;;;;2.67;1.42;;;22.30;45.20;;;;;;6244470;23;19996;-76
2021/04/24 11:55:39;;;;;;;5.53;1.25;;;22.30;45.10;;;;;;6244343;23;20004;-78
2021/04/24 11:58:10;;;;;;;2.95;1.50;;;22.20;45.20;;;;;;6243825;23;20075;-77
2021/04/24 12:00:36;;;;;;;4.32;1.60;;;22.20;45.20;;;;;;6242325;23;20008;-74
2021/04/24 12:03:02;;;;;;;2.35;1.45;;;22.20;45.40;;;;;;6244075;23;20057;-72
2021/04/24 12:05:28;;;;;;;3.05;1.52;;;22.20;45.70;;;;;;6244022;23;20000;-74
2021/04/24 12:07:54;;;;;;;4.82;1.65;;;22.30;45.80;;;;;;6243840;23;20007;-76
2021/04/24 12:10:28;;;;;;;4.13;1.77;;;22.30;46.00;;;;;;6244079;23;20000;-74
2021/04/24 12:13:05;;;;;;;4.20;1.27;;;22.20;45.90;;;;;;6243700;23;20012;-71
2021/04/24 12:15:31;;;;;;;5.13;1.80;;;22.20;46.20;;;;;;6243659;23;20004;-75
2021/04/24 12:18:00;;;;;;;4.75;1.60;;;22.20;45.90;;;;;;6241922;23;20035;-77
2021/04/24 12:20:27;;;;;;;4.55;1.63;;;22.20;45.80;;;;;;6243898;23;20429;-75
2021/04/24 12:22:54;;;;;;;2.67;1.30;;;22.20;46.20;;;;;;6243889;23;20008;-77
2021/04/24 12:25:22;;;;;;;2.40;1.40;;;22.20;46.10;;;;;;6243938;23;20369;-78
2021/04/24 12:27:50;;;;;;;3.05;1.40;;;22.10;46.20;;;;;;6243971;23;20341;-79
2021/04/24 12:30:17;;;;;;;4.63;1.40;;;22.20;46.30;;;;;;6243883;23;20046;-76
2021/04/24 12:32:48;;;;;;;4.75;1.38;;;22.10;46.20;;;;;;6243879;23;20000;-78
2021/04/24 12:35:24;;;;;;;2.72;1.27;;;22.20;46.30;;;;;;6244048;22;20004;-70
2021/04/24 12:38:02;;;;;;;2.40;1.40;;;22.20;46.20;;;;;;6241071;23;20356;-72
2021/04/24 12:40:28;;;;;;;8.38;1.60;;;22.30;46.30;;;;;;6241949;23;20293;-70
2021/04/24 12:43:07;;;;;;;4.05;1.40;;;22.20;46.40;;;;;;6242335;23;20444;-71
2021/04/24 12:45:36;;;;;;;2.00;1.48;;;22.20;46.40;;;;;;6242334;23;20111;-72
2021/04/24 12:48:03;;;;;;;4.78;2.00;;;22.20;46.60;;;;;;6241965;23;20078;-70
2021/04/24 12:50:37;;;;;;;5.15;1.60;;;22.30;46.60;;;;;;6242211;23;19996;-69
2021/04/24 12:53:04;;;;;;;2.83;1.37;;;22.20;46.40;;;;;;6240530;23;20012;-75